createdAt,value
2022-11-22T00:01:02.140Z,100.00
2022-11-22T00:03:31.914Z,100.00
2022-11-22T00:06:00.147Z,100.00
2022-11-22T00:08:28.556Z,100.00
2022-11-22T00:10:56.831Z,100.00
2022-11-22T00:13:25.027Z,100.00
2022-11-22T00:16:00.679Z,100.00
2022-11-22T00:18:29.104Z,100.00
2022-11-22T00:20:58.685Z,100.00
2022-11-22T00:23:26.936Z,100.00
2022-11-22T00:25:55.174Z,100.00
2022-11-22T00:28:23.449Z,100.00
2022-11-22T00:30:51.714Z,100.00
2022-11-22T00:33:19.983Z,100.00
2022-11-22T00:35:48.309Z,100.00
2022-11-22T00:38:17.901Z,100.00
2022-11-22T00:40:46.128Z,100.00
2022-11-22T00:43:14.425Z,100.00
2022-11-22T00:45:43.007Z,100.00
2022-11-22T00:48:11.263Z,100.00
2022-11-22T00:50:40.161Z,100.00
2022-11-22T00:53:08.420Z,100.00
2022-11-22T00:55:38.004Z,100.00
2022-11-22T00:58:06.291Z,100.00
2022-11-22T01:00:34.656Z,100.00
2022-11-22T01:03:02.919Z,100.00
2022-11-22T01:05:31.138Z,100.00
2022-11-22T01:07:59.438Z,100.00
2022-11-22T01:10:27.733Z,99.78
2022-11-22T01:12:58.613Z,99.95
2022-11-22T01:15:26.931Z,99.67
2022-11-22T01:17:55.140Z,99.30
2022-11-22T01:20:23.978Z,99.41
2022-11-22T01:22:52.523Z,99.74
2022-11-22T01:25:20.833Z,99.64
2022-11-22T01:27:50.940Z,99.49
2022-11-22T01:30:20.819Z,98.76
2022-11-22T01:32:49.109Z,98.73
2022-11-22T01:35:17.629Z,99.05
2022-11-22T01:37:45.917Z,98.61
2022-11-22T01:40:14.251Z,98.52
2022-11-22T01:42:50.710Z,98.65
2022-11-22T01:45:44.720Z,98.43
2022-11-22T01:48:33.014Z,97.87
2022-11-22T01:51:08.497Z,98.04
2022-11-22T01:53:40.139Z,97.85
2022-11-22T01:56:13.465Z,97.67
2022-11-22T01:58:44.969Z,97.64
2022-11-22T02:01:14.719Z,97.04
2022-11-22T02:03:47.805Z,96.81
2022-11-22T02:06:16.886Z,96.73
2022-11-22T02:08:56.247Z,97.28
2022-11-22T02:11:30.973Z,96.49
2022-11-22T02:14:02.274Z,96.34
2022-11-22T02:16:32.370Z,96.23
2022-11-22T02:19:00.653Z,96.24
2022-11-22T02:21:30.254Z,96.39
2022-11-22T02:24:07.749Z,96.29
2022-11-22T02:26:37.540Z,96.59
2022-11-22T02:29:08.985Z,96.56
2022-11-22T02:31:42.522Z,96.17
2022-11-22T02:34:11.596Z,95.81
2022-11-22T02:36:46.221Z,95.71
2022-11-22T02:39:18.906Z,95.65
2022-11-22T02:41:50.065Z,95.17
2022-11-22T02:44:19.249Z,95.20
2022-11-22T02:46:49.711Z,94.92
2022-11-22T02:49:20.000Z,94.89
2022-11-22T02:51:49.968Z,94.30
2022-11-22T02:54:18.785Z,94.32
2022-11-22T02:56:48.811Z,93.84
2022-11-22T02:59:17.114Z,94.20
2022-11-22T03:01:48.213Z,93.78
2022-11-22T03:04:24.758Z,93.60
2022-11-22T03:06:55.667Z,92.73
2022-11-22T03:09:24.434Z,92.88
2022-11-22T03:11:54.902Z,92.41
2022-11-22T03:14:23.529Z,91.88
2022-11-22T03:16:52.456Z,91.65
2022-11-22T03:19:21.092Z,91.10
2022-11-22T03:21:49.565Z,91.24
2022-11-22T03:24:19.363Z,90.98
2022-11-22T03:26:49.489Z,91.05
2022-11-22T03:29:19.765Z,91.09
2022-11-22T03:31:48.076Z,90.78
2022-11-22T03:34:17.236Z,90.45
2022-11-22T03:36:45.613Z,90.44
2022-11-22T03:39:13.899Z,90.26
2022-11-22T03:41:42.368Z,90.13
2022-11-22T03:44:10.756Z,90.27
2022-11-22T03:46:40.471Z,89.72
2022-11-22T03:49:08.828Z,90.32
2022-11-22T03:51:37.120Z,90.14
2022-11-22T03:54:05.809Z,90.47
2022-11-22T03:56:34.236Z,90.18
2022-11-22T03:59:02.630Z,90.15
2022-11-22T04:01:30.996Z,90.58
2022-11-22T04:04:00.723Z,90.25
2022-11-22T04:06:29.051Z,90.50
2022-11-22T04:08:57.391Z,89.88
2022-11-22T04:11:25.862Z,90.00
2022-11-22T04:14:11.890Z,89.90
2022-11-22T04:16:40.164Z,90.21
2022-11-22T04:19:09.970Z,89.83
2022-11-22T04:21:37.299Z,90.05
2022-11-22T04:24:25.252Z,90.31
2022-11-22T04:26:55.118Z,90.91
2022-11-22T04:29:24.275Z,90.80
2022-11-22T04:32:10.696Z,91.37
2022-11-22T04:34:40.326Z,91.56
2022-11-22T04:37:08.617Z,92.42
2022-11-22T04:39:36.940Z,92.60
2022-11-22T04:42:31.804Z,92.83
2022-11-22T04:45:00.214Z,93.02
2022-11-22T04:47:50.155Z,93.59
2022-11-22T04:50:37.739Z,94.01
2022-11-22T04:53:06.265Z,94.26
2022-11-22T04:55:34.500Z,94.73
2022-11-22T04:58:02.922Z,94.39
2022-11-22T05:00:32.301Z,94.44
2022-11-22T05:03:01.013Z,93.77
2022-11-22T05:05:31.081Z,94.23
2022-11-22T05:08:00.297Z,93.93
2022-11-22T05:10:28.640Z,94.52
2022-11-22T05:12:57.368Z,93.95
2022-11-22T05:15:25.632Z,94.02
2022-11-22T05:17:53.871Z,94.24
2022-11-22T05:20:24.903Z,94.16
2022-11-22T05:23:12.284Z,94.12
2022-11-22T05:25:40.545Z,94.19
2022-11-22T05:28:08.832Z,94.11
2022-11-22T05:30:40.117Z,94.13
2022-11-22T05:33:08.713Z,94.45
2022-11-22T05:35:36.994Z,94.08
2022-11-22T05:38:06.634Z,94.31
2022-11-22T05:40:34.938Z,94.24
2022-11-22T05:43:03.247Z,94.74
2022-11-22T05:45:31.530Z,94.91
2022-11-22T05:47:59.943Z,94.80
2022-11-22T05:50:28.184Z,95.05
2022-11-22T05:53:01.990Z,95.31
2022-11-22T05:55:32.205Z,95.49
2022-11-22T05:58:02.186Z,95.60
2022-11-22T06:00:31.150Z,94.78
2022-11-22T06:03:02.522Z,94.76
2022-11-22T06:05:31.534Z,94.54
2022-11-22T06:08:02.681Z,94.21
2022-11-22T06:10:34.354Z,94.09
2022-11-22T06:13:02.649Z,93.96
2022-11-22T06:15:31.814Z,94.41
2022-11-22T06:18:00.125Z,94.17
2022-11-22T06:20:28.402Z,94.40
2022-11-22T06:22:59.047Z,94.03
2022-11-22T06:25:27.352Z,94.19
2022-11-22T06:28:00.086Z,94.81
2022-11-22T06:30:28.387Z,94.67
2022-11-22T06:32:58.328Z,94.33
2022-11-22T06:35:26.592Z,94.32
2022-11-22T06:38:00.324Z,94.23
2022-11-22T06:40:29.022Z,94.31
2022-11-22T06:42:58.592Z,93.75
2022-11-22T06:45:27.023Z,93.65
2022-11-22T06:47:55.254Z,93.87
2022-11-22T06:50:23.547Z,93.43
2022-11-22T06:52:52.772Z,93.12
2022-11-22T06:55:49.169Z,93.21
2022-11-22T06:58:10.909Z,93.19
2022-11-22T07:00:39.271Z,93.29
2022-11-22T07:03:07.618Z,92.90
2022-11-22T07:05:35.987Z,93.40
2022-11-22T07:08:10.532Z,93.03
2022-11-22T07:10:41.709Z,93.21
2022-11-22T07:13:11.387Z,92.94
2022-11-22T07:15:39.852Z,93.21
2022-11-22T07:18:08.187Z,93.26
2022-11-22T07:20:36.635Z,93.12
2022-11-22T07:23:04.861Z,93.17
2022-11-22T07:25:33.173Z,92.84
2022-11-22T07:28:01.466Z,92.79
2022-11-22T07:30:31.066Z,93.31
2022-11-22T07:32:59.332Z,92.39
2022-11-22T07:35:27.630Z,92.87
2022-11-22T07:37:55.843Z,92.27
2022-11-22T07:40:24.124Z,92.00
2022-11-22T07:42:58.188Z,92.21
2022-11-22T07:45:27.237Z,92.24
2022-11-22T07:47:56.941Z,92.66
2022-11-22T07:50:25.350Z,92.81
2022-11-22T07:52:57.438Z,93.17
2022-11-22T07:55:26.886Z,92.27
2022-11-22T07:57:55.563Z,91.70
2022-11-22T08:00:24.255Z,90.73
2022-11-22T08:02:52.611Z,90.16
2022-11-22T08:05:22.571Z,90.69
2022-11-22T08:07:52.954Z,91.09
2022-11-22T08:10:22.258Z,91.22
2022-11-22T08:12:50.678Z,91.66
2022-11-22T08:15:19.301Z,91.88
2022-11-22T08:17:47.502Z,92.04
2022-11-22T08:20:16.187Z,91.93
2022-11-22T08:22:45.899Z,92.09
2022-11-22T08:25:14.297Z,92.17
2022-11-22T08:27:43.907Z,92.00
2022-11-22T08:30:13.248Z,92.33
2022-11-22T08:32:41.411Z,92.51
2022-11-22T08:35:10.585Z,92.57
2022-11-22T08:37:38.902Z,92.04
2022-11-22T08:40:10.648Z,92.54
2022-11-22T08:42:38.991Z,91.86
2022-11-22T08:45:08.909Z,92.21
2022-11-22T08:47:37.209Z,91.85
2022-11-22T08:50:06.927Z,92.29
2022-11-22T08:52:36.010Z,92.42
2022-11-22T08:55:04.322Z,92.71
2022-11-22T08:57:33.979Z,92.63
2022-11-22T09:00:02.284Z,91.90
2022-11-22T09:02:30.615Z,91.90
2022-11-22T09:04:58.995Z,91.96
2022-11-22T09:10:15.721Z,91.89
2022-11-22T09:12:47.170Z,91.98
2022-11-22T09:15:16.712Z,91.46
2022-11-22T09:17:45.090Z,91.50
2022-11-22T09:20:13.567Z,92.43
2022-11-22T09:22:41.949Z,91.91
2022-11-22T09:25:11.092Z,92.10
2022-11-22T09:27:39.321Z,92.55
2022-11-22T09:30:11.406Z,91.64
2022-11-22T09:32:39.706Z,92.25
2022-11-22T09:35:08.493Z,92.55
2022-11-22T09:37:36.894Z,92.31
2022-11-22T09:40:06.234Z,91.97
2022-11-22T09:43:03.643Z,91.81
2022-11-22T09:46:00.021Z,92.20
2022-11-22T09:48:49.452Z,91.63
2022-11-22T09:51:22.712Z,92.09
2022-11-22T09:53:56.497Z,91.40
2022-11-22T09:56:28.400Z,92.54
2022-11-22T09:59:03.426Z,91.95
2022-11-22T10:01:41.121Z,91.57
2022-11-22T10:04:15.583Z,91.14
2022-11-22T10:06:47.644Z,91.37
2022-11-22T10:09:32.622Z,91.47
2022-11-22T10:12:04.854Z,91.51
2022-11-22T10:14:42.840Z,91.36
2022-11-22T10:17:40.093Z,91.57
2022-11-22T10:20:15.438Z,92.10
2022-11-22T10:22:44.167Z,92.37
2022-11-22T10:25:19.387Z,92.58
2022-11-22T10:27:57.561Z,92.78
2022-11-22T10:30:37.033Z,93.07
2022-11-22T10:33:19.165Z,93.17
2022-11-22T10:36:08.964Z,92.89
2022-11-22T10:38:54.192Z,92.47
2022-11-22T10:41:39.652Z,92.59
2022-11-22T10:44:26.365Z,92.72
2022-11-22T10:47:07.519Z,92.58
2022-11-22T10:49:56.185Z,92.60
2022-11-22T10:52:36.928Z,93.53
2022-11-22T10:55:16.091Z,93.51
2022-11-22T10:57:54.765Z,93.31
2022-11-22T11:00:25.543Z,93.42
2022-11-22T11:03:26.196Z,93.31
2022-11-22T11:09:55.121Z,93.27
2022-11-22T11:11:47.125Z,93.44
2022-11-22T11:14:29.506Z,93.31
2022-11-22T11:16:58.689Z,93.06
2022-11-22T11:19:31.242Z,93.69
2022-11-22T11:22:31.613Z,94.11
2022-11-22T11:25:32.503Z,93.99
2022-11-22T11:28:05.560Z,94.37
2022-11-22T11:30:42.249Z,94.18
2022-11-22T11:33:26.337Z,94.45
2022-11-22T11:35:59.154Z,94.40
2022-11-22T11:38:32.199Z,94.23
2022-11-22T11:41:17.633Z,93.73
2022-11-22T11:43:46.871Z,93.92
2022-11-22T11:46:19.797Z,93.55
2022-11-22T11:48:48.899Z,94.61
2022-11-22T11:51:22.384Z,94.25
2022-11-22T11:54:00.861Z,94.66
2022-11-22T11:56:35.316Z,94.74
2022-11-22T11:59:13.159Z,94.52
2022-11-22T12:01:54.156Z,94.39
2022-11-22T12:04:27.509Z,94.77
2022-11-22T12:07:06.634Z,95.21
2022-11-22T12:09:44.253Z,95.37
2022-11-22T12:12:41.692Z,95.84
2022-11-22T12:15:19.669Z,95.43
2022-11-22T12:17:55.808Z,96.34
2022-11-22T12:20:30.538Z,96.55
2022-11-22T12:23:14.129Z,96.17
2022-11-22T12:25:45.646Z,95.82
2022-11-22T12:28:20.349Z,96.04
2022-11-22T12:31:03.485Z,96.15
2022-11-22T12:33:35.978Z,95.85
2022-11-22T12:36:06.299Z,95.77
2022-11-22T12:38:39.785Z,95.99
2022-11-22T12:41:13.774Z,95.58
2022-11-22T12:43:47.447Z,96.01
2022-11-22T12:46:25.937Z,95.73
2022-11-22T12:49:16.702Z,96.60
2022-11-22T12:51:48.130Z,96.86
2022-11-22T12:54:22.630Z,96.66
2022-11-22T12:56:57.135Z,96.10
2022-11-22T12:59:38.971Z,96.59
2022-11-22T13:02:23.254Z,96.83
2022-11-22T13:04:58.830Z,96.84
2022-11-22T13:07:45.460Z,96.87
2022-11-22T13:10:25.393Z,96.72
2022-11-22T13:12:58.652Z,96.71
2022-11-22T13:15:31.763Z,96.24
2022-11-22T13:18:00.246Z,95.99
2022-11-22T13:20:39.510Z,96.10
2022-11-22T13:23:30.432Z,95.67
2022-11-22T13:26:13.272Z,95.93
2022-11-22T13:28:45.905Z,96.12
2022-11-22T13:31:19.743Z,96.02
2022-11-22T13:33:58.082Z,96.56
2022-11-22T13:36:41.457Z,96.47
2022-11-22T13:39:18.827Z,96.90
2022-11-22T13:42:03.237Z,96.59
2022-11-22T13:45:08.522Z,96.79
2022-11-22T13:47:45.572Z,97.16
2022-11-22T13:51:02.696Z,97.27
2022-11-22T13:53:34.610Z,97.50
2022-11-22T13:56:50.402Z,97.42
2022-11-22T13:59:19.506Z,97.52
2022-11-22T14:02:02.410Z,97.24
2022-11-22T14:04:45.093Z,97.84
2022-11-22T14:07:36.362Z,96.93
2022-11-22T14:10:26.444Z,96.98
2022-11-22T14:13:30.112Z,97.03
2022-11-22T14:16:40.749Z,97.09
2022-11-22T14:19:28.923Z,96.95
2022-11-22T14:22:19.092Z,97.03
2022-11-22T14:25:23.336Z,97.84
2022-11-22T14:27:57.776Z,97.79
2022-11-22T14:30:40.458Z,97.87
2022-11-22T14:33:17.734Z,98.15
2022-11-22T14:36:18.073Z,98.43
2022-11-22T14:38:46.658Z,99.41
2022-11-22T14:41:53.274Z,98.46
2022-11-22T14:44:27.470Z,99.03
2022-11-22T14:47:03.714Z,98.74
2022-11-22T14:49:44.138Z,99.43
2022-11-22T14:52:24.646Z,99.23
2022-11-22T14:54:58.061Z,98.92
2022-11-22T14:57:29.624Z,99.14
2022-11-22T15:00:18.244Z,99.71
2022-11-22T15:03:37.196Z,100.00
2022-11-22T15:09:19.843Z,99.95
2022-11-22T15:09:55.564Z,99.82
2022-11-22T15:13:00.497Z,99.96
2022-11-22T15:57:33.908Z,100.00
2022-11-22T16:00:03.629Z,100.00
2022-11-22T16:02:40.506Z,100.00
2022-11-22T16:06:10.537Z,100.00
2022-11-22T16:08:02.028Z,100.00
2022-11-22T16:10:37.640Z,100.00
2022-11-22T16:13:22.629Z,100.00
2022-11-22T16:16:07.501Z,100.00
2022-11-22T16:18:35.843Z,100.00
2022-11-22T16:21:25.104Z,100.00
2022-11-22T16:24:16.365Z,100.00
2022-11-22T16:26:57.958Z,100.00
2022-11-22T16:29:32.214Z,100.00
2022-11-22T16:32:06.668Z,100.00
2022-11-22T16:34:34.985Z,100.00
2022-11-22T16:37:03.483Z,100.00
2022-11-22T16:39:33.736Z,100.00
2022-11-22T16:42:02.303Z,100.00
2022-11-22T16:44:31.947Z,100.00
2022-11-22T16:47:01.009Z,100.00
2022-11-22T16:49:29.725Z,100.00
2022-11-22T16:51:58.189Z,100.00
2022-11-22T16:54:28.634Z,100.00
2022-11-22T16:56:56.934Z,100.00
2022-11-22T16:59:25.198Z,100.00
2022-11-22T17:01:55.364Z,100.00
2022-11-22T17:04:26.975Z,100.00
2022-11-22T17:06:56.058Z,100.00
2022-11-22T17:09:24.304Z,100.00
2022-11-22T17:11:52.677Z,100.00
2022-11-22T17:14:21.261Z,100.00
2022-11-22T17:16:49.525Z,100.00
2022-11-22T17:19:45.710Z,100.00
2022-11-22T17:22:07.868Z,100.00
2022-11-22T17:24:36.675Z,100.00
2022-11-22T17:27:05.149Z,100.00
2022-11-22T17:32:21.838Z,100.00
2022-11-22T17:34:51.476Z,100.00
2022-11-22T17:37:19.735Z,100.00
2022-11-22T17:39:52.107Z,100.00
2022-11-22T17:42:20.450Z,100.00
2022-11-22T17:44:48.649Z,100.00
2022-11-22T17:47:16.993Z,100.00
2022-11-22T17:49:45.303Z,100.00
2022-11-22T17:52:14.883Z,100.00
2022-11-22T17:54:43.287Z,100.00
2022-11-22T17:57:11.489Z,100.00
2022-11-22T17:59:39.862Z,100.00
2022-11-22T18:02:08.178Z,100.00
2022-11-22T18:04:36.535Z,99.56
2022-11-22T18:07:04.845Z,99.28
2022-11-22T18:09:34.870Z,98.95
2022-11-22T18:12:03.534Z,98.61
2022-11-22T18:14:31.815Z,98.14
2022-11-22T18:17:00.605Z,97.63
2022-11-22T18:19:29.136Z,97.73
2022-11-22T18:21:57.865Z,97.46
2022-11-22T18:24:26.376Z,97.22
2022-11-22T18:26:56.093Z,96.98
2022-11-22T18:29:41.779Z,96.95
2022-11-22T18:32:10.882Z,97.27
2022-11-22T18:34:39.334Z,97.39
2022-11-22T18:37:07.705Z,97.52
2022-11-22T18:39:39.385Z,96.84
2022-11-22T18:42:13.441Z,96.84
2022-11-22T18:44:42.320Z,96.89
2022-11-22T18:47:11.000Z,96.93
2022-11-22T18:49:39.339Z,96.51
2022-11-22T18:52:09.696Z,96.95
2022-11-22T18:54:40.286Z,96.61
2022-11-22T18:57:10.069Z,97.38
2022-11-22T18:59:38.318Z,97.52
2022-11-22T19:02:07.361Z,98.00
2022-11-22T19:04:35.903Z,97.83
2022-11-22T19:07:04.412Z,97.97
2022-11-22T19:09:32.895Z,97.79
2022-11-22T19:12:01.451Z,97.62
2022-11-22T19:14:31.361Z,97.50
2022-11-22T19:16:59.904Z,97.45
2022-11-22T19:19:32.210Z,97.09
2022-11-22T19:22:00.563Z,97.31
2022-11-22T19:24:29.538Z,97.14
2022-11-22T19:26:58.108Z,96.71
2022-11-22T19:29:26.386Z,96.65
2022-11-22T19:31:56.217Z,96.43
2022-11-22T19:34:24.636Z,96.82
2022-11-22T19:36:53.033Z,96.47
2022-11-22T19:39:21.463Z,96.17
2022-11-22T19:41:49.874Z,96.04
2022-11-22T19:44:18.145Z,96.09
2022-11-22T19:46:46.511Z,96.27
2022-11-22T19:49:16.288Z,96.47
2022-11-22T19:51:44.630Z,96.64
2022-11-22T19:54:12.955Z,96.58
2022-11-22T19:56:41.420Z,96.68
2022-11-22T19:59:15.500Z,96.70
2022-11-22T20:01:44.393Z,97.26
2022-11-22T20:04:16.715Z,96.95
2022-11-22T20:06:49.943Z,96.89
2022-11-22T20:09:18.811Z,96.80
2022-11-22T20:11:47.228Z,96.99
2022-11-22T20:14:15.576Z,96.71
2022-11-22T20:16:43.910Z,96.33
2022-11-22T20:19:12.697Z,96.19
2022-11-22T20:21:42.471Z,96.13
2022-11-22T20:24:11.155Z,95.98
2022-11-22T20:26:39.575Z,95.89
2022-11-22T20:29:11.394Z,95.80
2022-11-22T20:31:40.883Z,95.75
2022-11-22T20:34:10.765Z,95.78
2022-11-22T20:36:39.145Z,95.93
2022-11-22T20:39:11.542Z,95.83
2022-11-22T20:41:41.179Z,95.93
2022-11-22T20:44:14.562Z,95.72
2022-11-22T20:46:44.447Z,95.68
2022-11-22T20:49:13.292Z,95.96
2022-11-22T20:51:43.161Z,96.17
2022-11-22T20:54:14.105Z,96.31
2022-11-22T20:56:42.502Z,96.44
2022-11-22T20:59:11.226Z,96.41
2022-11-22T21:01:39.563Z,96.84
2022-11-22T21:04:08.050Z,96.87
2022-11-22T21:06:36.548Z,97.18
2022-11-22T21:09:05.064Z,97.14
2022-11-22T21:11:35.080Z,97.35
2022-11-22T21:14:03.477Z,97.54
2022-11-22T21:16:32.196Z,97.12
2022-11-22T21:19:04.901Z,97.02
2022-11-22T21:21:35.704Z,97.15
2022-11-22T21:24:05.505Z,97.05
2022-11-22T21:26:35.606Z,97.41
2022-11-22T21:29:11.526Z,97.48
2022-11-22T21:31:44.121Z,97.66
2022-11-22T21:34:13.323Z,97.68
2022-11-22T21:36:41.554Z,97.68
2022-11-22T21:39:10.083Z,97.75
2022-11-22T21:41:41.022Z,97.73
2022-11-22T21:44:10.715Z,97.88
2022-11-22T21:46:39.480Z,98.05
2022-11-22T21:49:08.302Z,98.49
2022-11-22T21:51:36.722Z,98.40
2022-11-22T21:54:06.052Z,98.18
2022-11-22T21:56:34.499Z,98.00
2022-11-22T21:59:04.149Z,98.07
2022-11-22T22:01:32.936Z,98.05
2022-11-22T22:04:01.185Z,97.96
2022-11-22T22:06:29.571Z,97.79
2022-11-22T22:08:58.237Z,97.61
2022-11-22T22:11:26.593Z,97.70
2022-11-22T22:13:55.304Z,97.78
2022-11-22T22:16:26.148Z,97.81
2022-11-22T22:18:55.080Z,98.05
2022-11-22T22:21:23.442Z,98.21
2022-11-22T22:23:51.942Z,98.58
2022-11-22T22:26:20.546Z,98.81
2022-11-22T22:28:48.968Z,99.27
2022-11-22T22:31:21.552Z,99.13
2022-11-22T22:33:54.752Z,99.20
2022-11-22T22:36:24.075Z,99.33
2022-11-22T22:38:52.870Z,99.26
2022-11-22T22:41:23.493Z,99.43
2022-11-22T22:43:51.785Z,99.52
2022-11-22T22:46:22.233Z,99.02
2022-11-22T22:48:54.873Z,99.16
2022-11-22T22:51:31.937Z,98.78
2022-11-22T22:54:02.118Z,98.82
2022-11-22T22:56:31.952Z,99.05
2022-11-22T22:59:01.620Z,98.82
2022-11-22T23:01:32.558Z,98.72
2022-11-22T23:04:03.555Z,98.96
2022-11-22T23:06:34.365Z,98.90
2022-11-22T23:09:04.187Z,98.92
2022-11-22T23:11:51.371Z,98.82
2022-11-22T23:14:23.500Z,98.96
2022-11-22T23:16:57.905Z,99.08
2022-11-22T23:19:29.278Z,99.13
2022-11-22T23:21:57.723Z,99.39
2022-11-22T23:24:26.051Z,99.53
2022-11-22T23:26:54.362Z,99.46
2022-11-22T23:29:22.652Z,99.51
2022-11-22T23:31:51.124Z,99.68
2022-11-22T23:34:19.688Z,99.67
2022-11-22T23:36:49.378Z,99.67
2022-11-22T23:39:17.809Z,99.54
2022-11-22T23:41:46.133Z,100.00
2022-11-22T23:44:14.442Z,100.00
2022-11-22T23:46:42.725Z,99.90
2022-11-22T23:49:13.145Z,99.51
2022-11-22T23:51:41.432Z,99.49
2022-11-22T23:54:12.033Z,99.61
2022-11-22T23:56:40.340Z,99.37
2022-11-22T23:59:09.836Z,99.58
